sensor_id;sensor_type;location;lat;lon;timestamp;P1;durP1;ratioP1;P2;durP2;ratioP2
6348;SDS011;3207;42.648;23.406;2022-11-20T00:01:03;9.57;;;6.57;;
6348;SDS011;3207;42.648;23.406;2022-11-20T00:03:30;7.57;;;6.03;;
6348;SDS011;3207;42.648;23.406;2022-11-20T00:05:59;8.40;;;6.60;;
6348;SDS011;3207;42.648;23.406;2022-11-20T00:08:26;10.10;;;7.60;;
6348;SDS011;3207;42.648;23.406;2022-11-20T00:10:54;8.83;;;6.50;;
6348;SDS011;3207;42.648;23.406;2022-11-20T00:13:21;10.67;;;7.63;;
6348;SDS011;3207;42.648;23.406;2022-11-20T00:15:48;10.47;;;7.77;;
6348;SDS011;3207;42.648;23.406;2022-11-20T00:18:15;9.53;;;7.23;;
6348;SDS011;3207;42.648;23.406;2022-11-20T00:20:42;9.33;;;6.87;;
6348;SDS011;3207;42.648;23.406;2022-11-20T00:23:08;8.27;;;6.83;;
6348;SDS011;3207;42.648;23.406;2022-11-20T00:25:35;12.43;;;7.50;;
6348;SDS011;3207;42.648;23.406;2022-11-20T00:28:03;10.27;;;7.53;;
6348;SDS011;3207;42.648;23.406;2022-11-20T00:30:30;10.07;;;7.03;;
6348;SDS011;3207;42.648;23.406;2022-11-20T00:32:57;11.87;;;7.80;;
6348;SDS011;3207;42.648;23.406;2022-11-20T00:35:23;11.67;;;7.97;;
6348;SDS011;3207;42.648;23.406;2022-11-20T00:37:50;9.37;;;6.67;;
6348;SDS011;3207;42.648;23.406;2022-11-20T00:40:17;9.43;;;6.77;;
6348;SDS011;3207;42.648;23.406;2022-11-20T00:42:44;7.97;;;6.40;;
6348;SDS011;3207;42.648;23.406;2022-11-20T00:45:12;7.67;;;5.23;;
6348;SDS011;3207;42.648;23.406;2022-11-20T00:47:39;8.13;;;6.20;;
6348;SDS011;3207;42.648;23.406;2022-11-20T00:50:06;10.87;;;6.87;;
6348;SDS011;3207;42.648;23.406;2022-11-20T00:52:33;11.10;;;7.33;;
6348;SDS011;3207;42.648;23.406;2022-11-20T00:54:59;8.00;;;6.90;;
6348;SDS011;3207;42.648;23.406;2022-11-20T00:57:26;8.30;;;5.93;;
6348;SDS011;3207;42.648;23.406;2022-11-20T00:59:53;9.27;;;6.27;;
6348;SDS011;3207;42.648;23.406;2022-11-20T01:02:28;10.27;;;7.40;;
6348;SDS011;3207;42.648;23.406;2022-11-20T01:04:55;10.70;;;7.23;;
6348;SDS011;3207;42.648;23.406;2022-11-20T01:07:22;8.90;;;6.63;;
6348;SDS011;3207;42.648;23.406;2022-11-20T01:09:49;10.23;;;6.53;;
6348;SDS011;3207;42.648;23.406;2022-11-20T01:12:15;11.60;;;7.80;;
6348;SDS011;3207;42.648;23.406;2022-11-20T01:14:42;8.90;;;7.03;;
6348;SDS011;3207;42.648;23.406;2022-11-20T01:17:09;8.57;;;6.60;;
6348;SDS011;3207;42.648;23.406;2022-11-20T01:19:37;8.93;;;6.10;;
6348;SDS011;3207;42.648;23.406;2022-11-20T01:22:04;7.97;;;6.43;;
6348;SDS011;3207;42.648;23.406;2022-11-20T01:24:31;8.53;;;6.83;;
6348;SDS011;3207;42.648;23.406;2022-11-20T01:26:57;8.07;;;6.57;;
6348;SDS011;3207;42.648;23.406;2022-11-20T01:29:24;10.20;;;7.60;;
6348;SDS011;3207;42.648;23.406;2022-11-20T01:31:51;8.30;;;6.37;;
6348;SDS011;3207;42.648;23.406;2022-11-20T01:34:19;11.87;;;7.90;;
6348;SDS011;3207;42.648;23.406;2022-11-20T01:36:49;9.37;;;6.97;;
6348;SDS011;3207;42.648;23.406;2022-11-20T01:39:17;8.17;;;6.30;;
6348;SDS011;3207;42.648;23.406;2022-11-20T01:41:45;9.27;;;6.63;;
6348;SDS011;3207;42.648;23.406;2022-11-20T01:44:47;6.47;;;5.47;;
6348;SDS011;3207;42.648;23.406;2022-11-20T01:47:17;8.63;;;6.23;;
6348;SDS011;3207;42.648;23.406;2022-11-20T01:49:50;7.40;;;6.10;;
6348;SDS011;3207;42.648;23.406;2022-11-20T01:52:22;10.60;;;6.93;;
6348;SDS011;3207;42.648;23.406;2022-11-20T01:54:52;11.70;;;6.97;;
6348;SDS011;3207;42.648;23.406;2022-11-20T01:57:22;10.63;;;7.33;;
6348;SDS011;3207;42.648;23.406;2022-11-20T01:59:52;8.47;;;5.77;;
6348;SDS011;3207;42.648;23.406;2022-11-20T02:02:23;10.43;;;5.70;;
6348;SDS011;3207;42.648;23.406;2022-11-20T02:04:50;8.10;;;4.90;;
6348;SDS011;3207;42.648;23.406;2022-11-20T02:07:21;7.37;;;5.10;;
6348;SDS011;3207;42.648;23.406;2022-11-20T02:09:50;6.87;;;4.67;;
6348;SDS011;3207;42.648;23.406;2022-11-20T02:12:17;6.93;;;4.17;;
6348;SDS011;3207;42.648;23.406;2022-11-20T02:14:58;6.67;;;4.30;;
6348;SDS011;3207;42.648;23.406;2022-11-20T02:17:25;4.97;;;3.97;;
6348;SDS011;3207;42.648;23.406;2022-11-20T02:19:52;6.20;;;4.03;;
6348;SDS011;3207;42.648;23.406;2022-11-20T02:22:22;5.50;;;4.20;;
6348;SDS011;3207;42.648;23.406;2022-11-20T02:24:56;6.13;;;4.20;;
6348;SDS011;3207;42.648;23.406;2022-11-20T02:27:25;6.27;;;4.40;;
6348;SDS011;3207;42.648;23.406;2022-11-20T02:29:53;5.40;;;4.57;;
6348;SDS011;3207;42.648;23.406;2022-11-20T02:32:24;6.13;;;4.47;;
6348;SDS011;3207;42.648;23.406;2022-11-20T02:34:52;6.93;;;5.07;;
6348;SDS011;3207;42.648;23.406;2022-11-20T02:37:20;5.07;;;3.40;;
6348;SDS011;3207;42.648;23.406;2022-11-20T02:39:47;5.47;;;3.80;;
6348;SDS011;3207;42.648;23.406;2022-11-20T02:42:18;5.87;;;4.07;;
6348;SDS011;3207;42.648;23.406;2022-11-20T02:44:45;6.90;;;3.97;;
6348;SDS011;3207;42.648;23.406;2022-11-20T02:47:12;6.83;;;5.33;;
6348;SDS011;3207;42.648;23.406;2022-11-20T02:49:39;5.93;;;4.13;;
6348;SDS011;3207;42.648;23.406;2022-11-20T02:52:06;5.30;;;3.70;;
6348;SDS011;3207;42.648;23.406;2022-11-20T02:54:33;4.23;;;3.57;;
6348;SDS011;3207;42.648;23.406;2022-11-20T02:56:59;3.33;;;2.50;;
6348;SDS011;3207;42.648;23.406;2022-11-20T02:59:27;3.40;;;2.60;;
6348;SDS011;3207;42.648;23.406;2022-11-20T03:01:54;2.97;;;2.60;;
6348;SDS011;3207;42.648;23.406;2022-11-20T03:04:21;4.33;;;2.87;;
6348;SDS011;3207;42.648;23.406;2022-11-20T03:06:48;4.27;;;3.10;;
6348;SDS011;3207;42.648;23.406;2022-11-20T03:09:14;3.17;;;2.53;;
6348;SDS011;3207;42.648;23.406;2022-11-20T03:11:41;4.33;;;2.87;;
6348;SDS011;3207;42.648;23.406;2022-11-20T03:14:08;3.67;;;2.50;;
6348;SDS011;3207;42.648;23.406;2022-11-20T03:16:36;3.90;;;3.10;;
6348;SDS011;3207;42.648;23.406;2022-11-20T03:19:03;5.60;;;3.67;;
6348;SDS011;3207;42.648;23.406;2022-11-20T03:21:29;5.13;;;3.93;;
6348;SDS011;3207;42.648;23.406;2022-11-20T03:23:56;4.53;;;3.80;;
6348;SDS011;3207;42.648;23.406;2022-11-20T03:26:24;5.17;;;3.90;;
6348;SDS011;3207;42.648;23.406;2022-11-20T03:28:53;4.80;;;3.50;;
6348;SDS011;3207;42.648;23.406;2022-11-20T03:31:22;5.50;;;3.50;;
6348;SDS011;3207;42.648;23.406;2022-11-20T03:33:52;4.73;;;3.73;;
6348;SDS011;3207;42.648;23.406;2022-11-20T03:36:21;5.33;;;4.20;;
6348;SDS011;3207;42.648;23.406;2022-11-20T03:38:48;6.03;;;5.07;;
6348;SDS011;3207;42.648;23.406;2022-11-20T03:41:15;5.13;;;3.57;;
6348;SDS011;3207;42.648;23.406;2022-11-20T03:43:47;5.07;;;3.23;;
6348;SDS011;3207;42.648;23.406;2022-11-20T03:46:14;3.90;;;3.50;;
6348;SDS011;3207;42.648;23.406;2022-11-20T03:48:41;4.63;;;3.37;;
6348;SDS011;3207;42.648;23.406;2022-11-20T03:51:11;4.63;;;3.10;;
6348;SDS011;3207;42.648;23.406;2022-11-20T03:53:39;3.90;;;3.20;;
6348;SDS011;3207;42.648;23.406;2022-11-20T03:56:07;3.63;;;2.57;;
6348;SDS011;3207;42.648;23.406;2022-11-20T03:58:35;3.27;;;2.40;;
6348;SDS011;3207;42.648;23.406;2022-11-20T04:01:05;2.03;;;1.40;;
6348;SDS011;3207;42.648;23.406;2022-11-20T04:03:32;1.13;;;1.03;;
6348;SDS011;3207;42.648;23.406;2022-11-20T04:06:01;1.30;;;1.03;;
6348;SDS011;3207;42.648;23.406;2022-11-20T04:08:30;1.03;;;0.80;;
6348;SDS011;3207;42.648;23.406;2022-11-20T04:11:07;0.87;;;0.70;;
6348;SDS011;3207;42.648;23.406;2022-11-20T04:13:35;0.77;;;0.50;;
6348;SDS011;3207;42.648;23.406;2022-11-20T04:16:02;0.77;;;0.67;;
6348;SDS011;3207;42.648;23.406;2022-11-20T04:18:29;0.77;;;0.53;;
6348;SDS011;3207;42.648;23.406;2022-11-20T04:20:56;0.40;;;0.40;;
6348;SDS011;3207;42.648;23.406;2022-11-20T04:23:23;0.43;;;0.43;;
6348;SDS011;3207;42.648;23.406;2022-11-20T04:25:51;0.70;;;0.70;;
6348;SDS011;3207;42.648;23.406;2022-11-20T04:28:18;0.57;;;0.53;;
6348;SDS011;3207;42.648;23.406;2022-11-20T04:30:45;0.87;;;0.40;;
6348;SDS011;3207;42.648;23.406;2022-11-20T04:33:12;0.60;;;0.60;;
6348;SDS011;3207;42.648;23.406;2022-11-20T04:35:39;0.80;;;0.80;;
6348;SDS011;3207;42.648;23.406;2022-11-20T04:38:05;1.23;;;1.07;;
6348;SDS011;3207;42.648;23.406;2022-11-20T04:40:32;0.90;;;0.90;;
6348;SDS011;3207;42.648;23.406;2022-11-20T04:43:00;2.00;;;1.30;;
6348;SDS011;3207;42.648;23.406;2022-11-20T04:45:27;1.10;;;1.00;;
6348;SDS011;3207;42.648;23.406;2022-11-20T04:47:54;1.50;;;1.13;;
6348;SDS011;3207;42.648;23.406;2022-11-20T04:50:20;1.57;;;1.30;;
6348;SDS011;3207;42.648;23.406;2022-11-20T04:52:47;1.20;;;1.10;;
6348;SDS011;3207;42.648;23.406;2022-11-20T04:55:14;1.83;;;1.37;;
6348;SDS011;3207;42.648;23.406;2022-11-20T04:57:41;1.40;;;1.30;;
6348;SDS011;3207;42.648;23.406;2022-11-20T05:00:10;1.60;;;1.30;;
6348;SDS011;3207;42.648;23.406;2022-11-20T05:02:37;1.47;;;1.37;;
6348;SDS011;3207;42.648;23.406;2022-11-20T05:05:04;2.03;;;1.30;;
6348;SDS011;3207;42.648;23.406;2022-11-20T05:07:31;2.33;;;1.73;;
6348;SDS011;3207;42.648;23.406;2022-11-20T05:09:58;2.73;;;2.00;;
6348;SDS011;3207;42.648;23.406;2022-11-20T05:12:25;3.70;;;1.93;;
6348;SDS011;3207;42.648;23.406;2022-11-20T05:14:51;2.50;;;1.70;;
6348;SDS011;3207;42.648;23.406;2022-11-20T05:17:19;2.47;;;1.40;;
6348;SDS011;3207;42.648;23.406;2022-11-20T05:19:46;3.77;;;1.97;;
6348;SDS011;3207;42.648;23.406;2022-11-20T05:22:13;2.03;;;1.77;;
6348;SDS011;3207;42.648;23.406;2022-11-20T05:24:39;2.50;;;2.00;;
6348;SDS011;3207;42.648;23.406;2022-11-20T05:27:06;4.00;;;2.03;;
6348;SDS011;3207;42.648;23.406;2022-11-20T05:29:33;3.07;;;2.20;;
6348;SDS011;3207;42.648;23.406;2022-11-20T05:32:00;2.60;;;2.00;;
6348;SDS011;3207;42.648;23.406;2022-11-20T05:34:28;2.57;;;2.23;;
6348;SDS011;3207;42.648;23.406;2022-11-20T05:36:55;2.73;;;1.90;;
6348;SDS011;3207;42.648;23.406;2022-11-20T05:39:21;2.83;;;2.23;;
6348;SDS011;3207;42.648;23.406;2022-11-20T05:41:48;1.97;;;1.57;;
6348;SDS011;3207;42.648;23.406;2022-11-20T05:44:35;3.27;;;1.90;;
6348;SDS011;3207;42.648;23.406;2022-11-20T05:47:02;3.83;;;2.33;;
6348;SDS011;3207;42.648;23.406;2022-11-20T05:49:30;3.77;;;1.83;;
6348;SDS011;3207;42.648;23.406;2022-11-20T05:51:57;3.23;;;2.47;;
6348;SDS011;3207;42.648;23.406;2022-11-20T05:54:24;2.93;;;2.33;;
6348;SDS011;3207;42.648;23.406;2022-11-20T05:56:50;3.10;;;2.00;;
6348;SDS011;3207;42.648;23.406;2022-11-20T05:59:17;2.67;;;2.00;;
6348;SDS011;3207;42.648;23.406;2022-11-20T06:01:44;3.23;;;1.90;;
6348;SDS011;3207;42.648;23.406;2022-11-20T06:04:11;2.27;;;2.07;;
6348;SDS011;3207;42.648;23.406;2022-11-20T06:06:39;2.23;;;2.03;;
6348;SDS011;3207;42.648;23.406;2022-11-20T06:09:06;2.10;;;1.90;;
6348;SDS011;3207;42.648;23.406;2022-11-20T06:11:33;3.23;;;2.13;;
6348;SDS011;3207;42.648;23.406;2022-11-20T06:13:59;2.33;;;2.13;;
6348;SDS011;3207;42.648;23.406;2022-11-20T06:16:26;2.50;;;1.97;;
6348;SDS011;3207;42.648;23.406;2022-11-20T06:18:53;1.70;;;1.60;;
6348;SDS011;3207;42.648;23.406;2022-11-20T06:21:20;3.97;;;2.57;;
6348;SDS011;3207;42.648;23.406;2022-11-20T06:23:50;2.87;;;2.33;;
6348;SDS011;3207;42.648;23.406;2022-11-20T06:26:19;3.33;;;2.03;;
6348;SDS011;3207;42.648;23.406;2022-11-20T06:28:47;2.37;;;2.10;;
6348;SDS011;3207;42.648;23.406;2022-11-20T06:31:14;4.93;;;2.60;;
6348;SDS011;3207;42.648;23.406;2022-11-20T06:33:42;3.63;;;2.80;;
6348;SDS011;3207;42.648;23.406;2022-11-20T06:36:10;3.03;;;2.50;;
6348;SDS011;3207;42.648;23.406;2022-11-20T06:38:37;3.03;;;2.53;;
6348;SDS011;3207;42.648;23.406;2022-11-20T06:41:06;3.13;;;2.80;;
6348;SDS011;3207;42.648;23.406;2022-11-20T06:43:36;3.37;;;3.03;;
6348;SDS011;3207;42.648;23.406;2022-11-20T06:46:03;3.80;;;2.87;;
6348;SDS011;3207;42.648;23.406;2022-11-20T06:48:30;3.50;;;3.20;;
6348;SDS011;3207;42.648;23.406;2022-11-20T06:50:57;3.50;;;2.83;;
6348;SDS011;3207;42.648;23.406;2022-11-20T06:53:24;2.83;;;2.50;;
6348;SDS011;3207;42.648;23.406;2022-11-20T06:55:51;3.27;;;2.97;;
6348;SDS011;3207;42.648;23.406;2022-11-20T06:58:20;3.60;;;2.83;;
6348;SDS011;3207;42.648;23.406;2022-11-20T07:00:46;3.87;;;2.97;;
6348;SDS011;3207;42.648;23.406;2022-11-20T07:03:13;3.43;;;3.10;;
6348;SDS011;3207;42.648;23.406;2022-11-20T07:05:40;3.60;;;2.87;;
6348;SDS011;3207;42.648;23.406;2022-11-20T07:08:07;4.77;;;3.60;;
6348;SDS011;3207;42.648;23.406;2022-11-20T07:10:34;5.87;;;3.40;;
6348;SDS011;3207;42.648;23.406;2022-11-20T07:13:01;5.13;;;3.83;;
6348;SDS011;3207;42.648;23.406;2022-11-20T07:15:29;5.27;;;3.73;;
6348;SDS011;3207;42.648;23.406;2022-11-20T07:17:58;5.23;;;4.20;;
6348;SDS011;3207;42.648;23.406;2022-11-20T07:20:24;8.13;;;3.93;;
6348;SDS011;3207;42.648;23.406;2022-11-20T07:22:52;5.73;;;3.97;;
6348;SDS011;3207;42.648;23.406;2022-11-20T07:25:19;6.90;;;4.17;;
6348;SDS011;3207;42.648;23.406;2022-11-20T07:27:46;9.07;;;4.93;;
6348;SDS011;3207;42.648;23.406;2022-11-20T07:30:13;7.00;;;4.50;;
6348;SDS011;3207;42.648;23.406;2022-11-20T07:32:42;7.23;;;5.93;;
6348;SDS011;3207;42.648;23.406;2022-11-20T07:35:08;6.80;;;4.40;;
6348;SDS011;3207;42.648;23.406;2022-11-20T07:37:35;6.60;;;4.50;;
6348;SDS011;3207;42.648;23.406;2022-11-20T07:40:03;7.87;;;5.50;;
6348;SDS011;3207;42.648;23.406;2022-11-20T07:42:30;7.57;;;5.37;;
6348;SDS011;3207;42.648;23.406;2022-11-20T07:44:57;8.37;;;5.03;;
6348;SDS011;3207;42.648;23.406;2022-11-20T07:47:23;8.73;;;5.40;;
6348;SDS011;3207;42.648;23.406;2022-11-20T07:49:52;8.60;;;5.33;;
6348;SDS011;3207;42.648;23.406;2022-11-20T07:52:18;8.63;;;5.13;;
6348;SDS011;3207;42.648;23.406;2022-11-20T07:54:45;9.23;;;5.87;;
6348;SDS011;3207;42.648;23.406;2022-11-20T07:57:12;6.20;;;5.03;;
6348;SDS011;3207;42.648;23.406;2022-11-20T07:59:39;7.37;;;5.13;;
6348;SDS011;3207;42.648;23.406;2022-11-20T08:02:09;7.00;;;4.70;;
6348;SDS011;3207;42.648;23.406;2022-11-20T08:04:36;8.30;;;5.63;;
6348;SDS011;3207;42.648;23.406;2022-11-20T08:07:04;7.47;;;5.20;;
6348;SDS011;3207;42.648;23.406;2022-11-20T08:09:31;8.73;;;6.07;;
6348;SDS011;3207;42.648;23.406;2022-11-20T08:11:57;7.97;;;6.03;;
6348;SDS011;3207;42.648;23.406;2022-11-20T08:14:42;8.57;;;6.43;;
6348;SDS011;3207;42.648;23.406;2022-11-20T08:17:08;9.50;;;7.23;;
6348;SDS011;3207;42.648;23.406;2022-11-20T08:19:35;8.83;;;6.93;;
6348;SDS011;3207;42.648;23.406;2022-11-20T08:22:03;9.93;;;7.67;;
6348;SDS011;3207;42.648;23.406;2022-11-20T08:24:30;9.43;;;7.00;;
6348;SDS011;3207;42.648;23.406;2022-11-20T08:26:57;9.67;;;7.63;;
6348;SDS011;3207;42.648;23.406;2022-11-20T08:29:24;11.73;;;9.47;;
6348;SDS011;3207;42.648;23.406;2022-11-20T08:31:52;9.63;;;7.43;;
6348;SDS011;3207;42.648;23.406;2022-11-20T08:34:19;8.60;;;6.57;;
6348;SDS011;3207;42.648;23.406;2022-11-20T08:36:45;7.37;;;5.70;;
6348;SDS011;3207;42.648;23.406;2022-11-20T08:39:14;6.40;;;5.17;;
6348;SDS011;3207;42.648;23.406;2022-11-20T08:41:40;5.87;;;5.03;;
6348;SDS011;3207;42.648;23.406;2022-11-20T08:44:07;6.50;;;5.20;;
6348;SDS011;3207;42.648;23.406;2022-11-20T08:46:39;8.83;;;7.57;;
6348;SDS011;3207;42.648;23.406;2022-11-20T08:49:09;8.43;;;6.73;;
6348;SDS011;3207;42.648;23.406;2022-11-20T08:51:37;13.60;;;9.83;;
6348;SDS011;3207;42.648;23.406;2022-11-20T08:54:04;19.10;;;11.53;;
6348;SDS011;3207;42.648;23.406;2022-11-20T08:56:33;14.33;;;9.47;;
6348;SDS011;3207;42.648;23.406;2022-11-20T08:59:00;9.17;;;7.23;;
6348;SDS011;3207;42.648;23.406;2022-11-20T09:01:27;9.73;;;7.90;;
6348;SDS011;3207;42.648;23.406;2022-11-20T09:03:55;8.13;;;6.20;;
6348;SDS011;3207;42.648;23.406;2022-11-20T09:06:22;9.50;;;6.20;;
6348;SDS011;3207;42.648;23.406;2022-11-20T09:08:51;9.77;;;6.53;;
6348;SDS011;3207;42.648;23.406;2022-11-20T09:11:18;10.33;;;6.43;;
6348;SDS011;3207;42.648;23.406;2022-11-20T09:13:46;9.63;;;6.73;;
6348;SDS011;3207;42.648;23.406;2022-11-20T09:16:13;8.00;;;6.27;;
6348;SDS011;3207;42.648;23.406;2022-11-20T09:18:40;11.40;;;8.43;;
6348;SDS011;3207;42.648;23.406;2022-11-20T09:21:09;10.37;;;7.00;;
6348;SDS011;3207;42.648;23.406;2022-11-20T09:23:37;7.60;;;6.17;;
6348;SDS011;3207;42.648;23.406;2022-11-20T09:26:05;8.73;;;6.67;;
6348;SDS011;3207;42.648;23.406;2022-11-20T09:28:33;7.27;;;6.37;;
6348;SDS011;3207;42.648;23.406;2022-11-20T09:31:03;7.70;;;5.33;;
6348;SDS011;3207;42.648;23.406;2022-11-20T09:33:41;8.27;;;6.20;;
6348;SDS011;3207;42.648;23.406;2022-11-20T09:36:08;9.53;;;7.00;;
6348;SDS011;3207;42.648;23.406;2022-11-20T09:38:35;7.67;;;5.80;;
6348;SDS011;3207;42.648;23.406;2022-11-20T09:41:03;9.23;;;5.73;;
6348;SDS011;3207;42.648;23.406;2022-11-20T09:43:49;6.60;;;5.80;;
6348;SDS011;3207;42.648;23.406;2022-11-20T09:46:23;10.67;;;6.33;;
6348;SDS011;3207;42.648;23.406;2022-11-20T09:49:04;8.10;;;5.70;;
6348;SDS011;3207;42.648;23.406;2022-11-20T09:51:46;10.83;;;7.80;;
6348;SDS011;3207;42.648;23.406;2022-11-20T09:54:20;8.80;;;6.37;;
6348;SDS011;3207;42.648;23.406;2022-11-20T09:56:49;8.97;;;6.87;;
6348;SDS011;3207;42.648;23.406;2022-11-20T09:59:36;8.97;;;6.50;;
6348;SDS011;3207;42.648;23.406;2022-11-20T10:02:12;7.97;;;6.10;;
6348;SDS011;3207;42.648;23.406;2022-11-20T10:04:44;7.83;;;5.97;;
6348;SDS011;3207;42.648;23.406;2022-11-20T10:07:16;8.37;;;5.70;;
6348;SDS011;3207;42.648;23.406;2022-11-20T10:09:50;5.63;;;5.07;;
6348;SDS011;3207;42.648;23.406;2022-11-20T10:12:21;8.93;;;6.00;;
6348;SDS011;3207;42.648;23.406;2022-11-20T10:14:56;10.53;;;8.90;;
6348;SDS011;3207;42.648;23.406;2022-11-20T10:17:44;9.10;;;7.40;;
6348;SDS011;3207;42.648;23.406;2022-11-20T10:20:24;11.10;;;6.60;;
6348;SDS011;3207;42.648;23.406;2022-11-20T10:23:04;10.93;;;7.70;;
6348;SDS011;3207;42.648;23.406;2022-11-20T10:25:47;14.13;;;8.70;;
6348;SDS011;3207;42.648;23.406;2022-11-20T10:31:13;9.67;;;7.40;;
6348;SDS011;3207;42.648;23.406;2022-11-20T10:33:51;8.47;;;6.77;;
6348;SDS011;3207;42.648;23.406;2022-11-20T10:36:23;8.10;;;7.27;;
6348;SDS011;3207;42.648;23.406;2022-11-20T10:38:54;8.27;;;7.27;;
6348;SDS011;3207;42.648;23.406;2022-11-20T10:41:26;10.53;;;8.60;;
6348;SDS011;3207;42.648;23.406;2022-11-20T10:43:59;10.23;;;7.07;;
6348;SDS011;3207;42.648;23.406;2022-11-20T10:46:33;7.43;;;6.10;;
6348;SDS011;3207;42.648;23.406;2022-11-20T10:49:10;7.43;;;5.43;;
6348;SDS011;3207;42.648;23.406;2022-11-20T10:51:40;8.63;;;6.00;;
6348;SDS011;3207;42.648;23.406;2022-11-20T10:54:17;6.57;;;5.27;;
6348;SDS011;3207;42.648;23.406;2022-11-20T10:56:50;6.63;;;6.00;;
6348;SDS011;3207;42.648;23.406;2022-11-20T10:59:28;6.43;;;5.67;;
6348;SDS011;3207;42.648;23.406;2022-11-20T11:02:17;7.53;;;6.20;;
6348;SDS011;3207;42.648;23.406;2022-11-20T11:04:47;6.97;;;5.33;;
6348;SDS011;3207;42.648;23.406;2022-11-20T11:07:16;7.63;;;5.73;;
6348;SDS011;3207;42.648;23.406;2022-11-20T11:09:47;5.23;;;4.63;;
6348;SDS011;3207;42.648;23.406;2022-11-20T11:12:16;5.87;;;4.77;;
6348;SDS011;3207;42.648;23.406;2022-11-20T11:14:47;5.50;;;4.30;;
6348;SDS011;3207;42.648;23.406;2022-11-20T11:17:20;5.80;;;5.20;;
6348;SDS011;3207;42.648;23.406;2022-11-20T11:20:06;4.90;;;4.47;;
6348;SDS011;3207;42.648;23.406;2022-11-20T11:22:43;5.03;;;4.53;;
6348;SDS011;3207;42.648;23.406;2022-11-20T11:25:22;5.63;;;5.03;;
6348;SDS011;3207;42.648;23.406;2022-11-20T11:27:55;6.73;;;5.53;;
6348;SDS011;3207;42.648;23.406;2022-11-20T11:30:24;8.37;;;6.20;;
6348;SDS011;3207;42.648;23.406;2022-11-20T11:33:02;8.83;;;7.50;;
6348;SDS011;3207;42.648;23.406;2022-11-20T11:35:32;9.90;;;8.40;;
6348;SDS011;3207;42.648;23.406;2022-11-20T11:38:03;13.93;;;7.03;;
6348;SDS011;3207;42.648;23.406;2022-11-20T11:40:32;10.50;;;7.73;;
6348;SDS011;3207;42.648;23.406;2022-11-20T11:43:02;8.43;;;6.83;;
6348;SDS011;3207;42.648;23.406;2022-11-20T11:45:52;9.33;;;7.57;;
6348;SDS011;3207;42.648;23.406;2022-11-20T11:48:20;9.80;;;7.83;;
6348;SDS011;3207;42.648;23.406;2022-11-20T11:50:50;8.37;;;7.33;;
6348;SDS011;3207;42.648;23.406;2022-11-20T11:53:19;8.60;;;6.67;;
6348;SDS011;3207;42.648;23.406;2022-11-20T11:55:49;9.07;;;6.67;;
6348;SDS011;3207;42.648;23.406;2022-11-20T11:58:28;8.47;;;7.07;;
6348;SDS011;3207;42.648;23.406;2022-11-20T12:01:15;8.10;;;6.87;;
6348;SDS011;3207;42.648;23.406;2022-11-20T12:04:00;7.60;;;6.43;;
6348;SDS011;3207;42.648;23.406;2022-11-20T12:06:41;7.53;;;6.73;;
6348;SDS011;3207;42.648;23.406;2022-11-20T12:09:12;10.13;;;6.67;;
6348;SDS011;3207;42.648;23.406;2022-11-20T12:11:41;7.80;;;6.43;;
6348;SDS011;3207;42.648;23.406;2022-11-20T12:14:14;8.87;;;6.17;;
6348;SDS011;3207;42.648;23.406;2022-11-20T12:16:49;6.47;;;5.73;;
6348;SDS011;3207;42.648;23.406;2022-11-20T12:19:17;6.70;;;5.47;;
6348;SDS011;3207;42.648;23.406;2022-11-20T12:21:49;6.83;;;5.20;;
6348;SDS011;3207;42.648;23.406;2022-11-20T12:24:40;6.17;;;5.23;;
6348;SDS011;3207;42.648;23.406;2022-11-20T12:27:23;9.80;;;7.30;;
6348;SDS011;3207;42.648;23.406;2022-11-20T12:30:10;8.43;;;6.47;;
6348;SDS011;3207;42.648;23.406;2022-11-20T12:32:55;7.13;;;6.33;;
6348;SDS011;3207;42.648;23.406;2022-11-20T12:38:42;14.70;;;10.77;;
6348;SDS011;3207;42.648;23.406;2022-11-20T12:41:19;17.30;;;11.77;;
6348;SDS011;3207;42.648;23.406;2022-11-20T12:44:12;20.13;;;15.90;;
6348;SDS011;3207;42.648;23.406;2022-11-20T12:47:12;13.67;;;11.37;;
6348;SDS011;3207;42.648;23.406;2022-11-20T12:49:47;13.43;;;10.23;;
6348;SDS011;3207;42.648;23.406;2022-11-20T12:52:28;11.10;;;9.70;;
6348;SDS011;3207;42.648;23.406;2022-11-20T12:55:12;12.57;;;10.33;;
6348;SDS011;3207;42.648;23.406;2022-11-20T12:57:56;11.90;;;10.73;;
6348;SDS011;3207;42.648;23.406;2022-11-20T13:00:27;11.03;;;8.27;;
6348;SDS011;3207;42.648;23.406;2022-11-20T13:06:05;10.17;;;7.43;;
6348;SDS011;3207;42.648;23.406;2022-11-20T13:08:40;10.30;;;8.77;;
6348;SDS011;3207;42.648;23.406;2022-11-20T13:11:14;11.57;;;9.63;;
6348;SDS011;3207;42.648;23.406;2022-11-20T13:13:48;13.40;;;10.20;;
6348;SDS011;3207;42.648;23.406;2022-11-20T13:16:30;11.20;;;8.23;;
6348;SDS011;3207;42.648;23.406;2022-11-20T13:19:03;10.03;;;7.23;;
6348;SDS011;3207;42.648;23.406;2022-11-20T13:21:35;11.10;;;8.40;;
6348;SDS011;3207;42.648;23.406;2022-11-20T13:24:21;9.40;;;7.07;;
6348;SDS011;3207;42.648;23.406;2022-11-20T13:29:58;6.77;;;5.90;;
6348;SDS011;3207;42.648;23.406;2022-11-20T13:32:27;8.73;;;7.30;;
6348;SDS011;3207;42.648;23.406;2022-11-20T13:34:58;7.93;;;7.13;;
6348;SDS011;3207;42.648;23.406;2022-11-20T13:37:30;8.70;;;7.80;;
6348;SDS011;3207;42.648;23.406;2022-11-20T13:40:06;7.87;;;6.93;;
6348;SDS011;3207;42.648;23.406;2022-11-20T13:42:54;8.60;;;7.37;;
6348;SDS011;3207;42.648;23.406;2022-11-20T13:45:24;9.37;;;7.57;;
6348;SDS011;3207;42.648;23.406;2022-11-20T13:47:52;9.90;;;8.33;;
6348;SDS011;3207;42.648;23.406;2022-11-20T13:50:21;14.93;;;9.83;;
6348;SDS011;3207;42.648;23.406;2022-11-20T13:53:07;10.63;;;8.03;;
6348;SDS011;3207;42.648;23.406;2022-11-20T13:55:47;12.03;;;8.13;;
6348;SDS011;3207;42.648;23.406;2022-11-20T13:58:24;10.37;;;8.50;;
6348;SDS011;3207;42.648;23.406;2022-11-20T14:01:08;11.47;;;9.57;;
6348;SDS011;3207;42.648;23.406;2022-11-20T14:03:37;9.00;;;7.73;;
6348;SDS011;3207;42.648;23.406;2022-11-20T14:06:05;11.67;;;8.87;;
6348;SDS011;3207;42.648;23.406;2022-11-20T14:08:40;9.53;;;8.23;;
6348;SDS011;3207;42.648;23.406;2022-11-20T14:11:14;11.60;;;8.97;;
6348;SDS011;3207;42.648;23.406;2022-11-20T14:13:54;12.57;;;9.33;;
6348;SDS011;3207;42.648;23.406;2022-11-20T14:16:23;16.37;;;10.50;;
6348;SDS011;3207;42.648;23.406;2022-11-20T14:18:52;13.20;;;10.57;;
6348;SDS011;3207;42.648;23.406;2022-11-20T14:21:24;15.17;;;11.33;;
6348;SDS011;3207;42.648;23.406;2022-11-20T14:23:53;13.57;;;11.23;;
6348;SDS011;3207;42.648;23.406;2022-11-20T14:26:28;17.33;;;12.67;;
6348;SDS011;3207;42.648;23.406;2022-11-20T14:28:57;15.03;;;12.77;;
6348;SDS011;3207;42.648;23.406;2022-11-20T14:31:24;17.33;;;11.80;;
6348;SDS011;3207;42.648;23.406;2022-11-20T14:33:53;13.00;;;10.90;;
6348;SDS011;3207;42.648;23.406;2022-11-20T14:36:22;15.70;;;12.70;;
6348;SDS011;3207;42.648;23.406;2022-11-20T14:38:51;12.73;;;10.40;;
6348;SDS011;3207;42.648;23.406;2022-11-20T14:41:20;12.77;;;9.63;;
6348;SDS011;3207;42.648;23.406;2022-11-20T14:43:49;12.13;;;9.33;;
6348;SDS011;3207;42.648;23.406;2022-11-20T14:46:21;11.80;;;9.20;;
6348;SDS011;3207;42.648;23.406;2022-11-20T14:48:49;10.10;;;8.10;;
6348;SDS011;3207;42.648;23.406;2022-11-20T14:51:29;10.30;;;7.80;;
6348;SDS011;3207;42.648;23.406;2022-11-20T14:54:07;11.00;;;8.50;;
6348;SDS011;3207;42.648;23.406;2022-11-20T14:56:35;13.30;;;9.40;;
6348;SDS011;3207;42.648;23.406;2022-11-20T14:59:02;11.23;;;8.63;;
6348;SDS011;3207;42.648;23.406;2022-11-20T15:01:30;13.83;;;9.73;;
6348;SDS011;3207;42.648;23.406;2022-11-20T15:03:59;12.60;;;9.93;;
6348;SDS011;3207;42.648;23.406;2022-11-20T15:06:28;13.50;;;9.33;;
6348;SDS011;3207;42.648;23.406;2022-11-20T15:08:56;12.57;;;9.33;;
6348;SDS011;3207;42.648;23.406;2022-11-20T15:11:26;15.43;;;11.60;;
6348;SDS011;3207;42.648;23.406;2022-11-20T15:13:55;16.03;;;12.10;;
6348;SDS011;3207;42.648;23.406;2022-11-20T15:16:23;14.27;;;10.77;;
6348;SDS011;3207;42.648;23.406;2022-11-20T15:18:54;20.10;;;13.20;;
6348;SDS011;3207;42.648;23.406;2022-11-20T15:21:21;19.23;;;14.20;;
6348;SDS011;3207;42.648;23.406;2022-11-20T15:23:48;19.40;;;13.87;;
6348;SDS011;3207;42.648;23.406;2022-11-20T15:26:17;18.47;;;14.60;;
6348;SDS011;3207;42.648;23.406;2022-11-20T15:28:47;18.40;;;14.30;;